x

West Gulf - 207 Nm East Of Brownsville, Tx (42002) Wave Buoy

9:50pm - Mon 27th Jul 2015 All times are CDT. -5 hours from GMT.

  • Sig Wave height 1.0ft
  • Swell Direction
  • Peak Period 4s
  • Average Period 4s
  • Wind
    13mph, 16mph gusts
  • Sea Temp 87°f
  • Air Temp 87°f
  • Sea Pressure 1014.2mb
  • West Gulf - 207 Nm East Of Brownsville, Tx
  • West Gulf - 207 Nm East Of Brownsville, Tx

More Historic Weather Station data

Upgrade to MSW Pro to gain access to the past 30 days of data for over 8000 Wavebouys and Weather Stations around the globe.

Join Pro

Comparision Forecast

View Surf forecast
   
Mon 07/27 9:50pm 1ft 4s 4s 13 16 mph 1014.2mb 87f 87f
8:50pm 1ft 4s 4s 11 13 mph 1013.8mb 87f 87f
7:50pm 1ft 5s 4s 11 13 mph 1013.5mb 87f 87f
6:50pm 1ft 5s 4s 7 9 mph 1013.7mb 87f 87f
5:50pm 1ft 5s 4s 7 9 mph 1013.8mb 87f 87f
4:50pm 1.3ft 5s 4s 7 9 mph 1014mb 87f 87f
3:50pm 1.3ft 5s 4s 7 9 mph 1014.2mb 87f 87f
2:50pm 1.3ft 4s 4s 7 9 mph 1014.8mb 87f 86f
1:50pm 1.3ft 5s 4s 11 13 mph 1015.2mb 87f 86f
12:50pm 1.6ft 5s 4s 9 11 mph 1015.8mb 86f 86f
11:50am 1.3ft 5s 4s 13 16 mph 1015.7mb 86f 86f
10:50am 1.3ft 4s 4s 9 11 mph 1015.7mb 86f 86f
9:50am 1.3ft 5s 4s 7
mph
1015.3mb 86f 86f
8:50am 1.3ft 4s 4s 4
mph
1014.9mb 86f 86f
7:50am 1.3ft 4s 4s 4 9 mph 1014.2mb 86f 85f
6:50am 1.6ft 4s  -  7 9 mph 1013.4mb 86f 85f
5:50am 1.6ft 21s 3s 9 11 mph 1012.9mb 86f 85f
4:50am 1.6ft 3s 3s 13 16 mph 1012.6mb 86f 85f
3:50am 1.6ft 3s 3s 13 16 mph 1012.7mb 86f 85f
2:50am 1.6ft 2s 3s 16 18 mph 1012.8mb 86f 86f
1:50am 1.3ft 4s 3s 16 18 mph 1013.3mb 86f 86f
12:50am 1ft 5s 4s 13 16 mph 1013.8mb 86f 86f
Sun 07/26 11:50pm 1ft 5s 4s 13
mph
1014.2mb 86f 86f
10:50pm 1ft 5s 4s 11 13 mph 1014mb 87f 86f
9:50pm 1ft 4s 4s 9 11 mph 1013.5mb 87f 86f
8:50pm 1ft 5s 4s 9 11 mph 1013.3mb 87f 86f
7:50pm 1ft 5s 4s 7 9 mph 1013.3mb 87f 86f
6:50pm 1ft 4s 4s 7 9 mph 1013.3mb 88f 87f
5:50pm 1.3ft 5s 4s 4 7 mph 1013.5mb 88f 87f
4:50pm 1.3ft 5s 4s 4 7 mph 1013.9mb 89f 87f
3:50pm 1.3ft 4s 4s 4
mph
1014.3mb 88f 87f
2:50pm 1.3ft 4s 4s 7 9 mph 1014.5mb 88f 86f
1:50pm 1.3ft 6s 4s 7 9 mph 1014.7mb 88f 86f
12:50pm 1.3ft 5s 4s 9
mph
1015.1mb 87f 86f
11:50am 1.3ft 5s 4s 4 7 mph 1015.1mb 87f 86f
10:50am 1.3ft 6s 4s 7
mph
1014.9mb 86f 86f
9:50am 1.6ft 6s 4s 7 9 mph 1014.5mb 86f 86f
8:50am 1.6ft 5s 4s 7 9 mph 1014.2mb 86f 85f
7:50am 1.6ft 6s 4s 9 11 mph 1013.6mb 86f 85f
6:50am 1.6ft 6s 4s 13
mph
1013.3mb 86f 85f
5:50am 1.3ft 5s 4s 11 13 mph 1012.9mb 86f 85f
4:50am 1.3ft 5s 4s 13 16 mph 1012.8mb 86f 85f
3:50am 1.3ft 5s 4s 11 13 mph 1013mb 86f 85f
2:50am 1.3ft 5s 4s 11 13 mph 1013.3mb 86f 85f
1:50am 1ft 5s 4s 11 13 mph 1014.1mb 86f 85f
12:50am 1.3ft 4s 4s 11 13 mph 1014.4mb 86f 85f
Sat 07/25 11:50pm 1.3ft 5s 4s 11 13 mph 1014.4mb 87f 85f
10:50pm 1ft 5s 4s 11
mph
1014.7mb 87f 85f
9:50pm 1.3ft 5s 4s 7 9 mph 1014.1mb 87f 85f
8:50pm 1.3ft 5s 4s 7 9 mph 1013.8mb 87f 85f
7:50pm 1.3ft 5s 4s 7 9 mph 1013.9mb 87f 86f
6:50pm 1.3ft 5s 4s 7
mph
1014.1mb 87f 86f
5:50pm 1.3ft 5s 4s 7
mph
1014.3mb 88f 86f
4:50pm 1.3ft 5s 4s 4 7 mph 1014.9mb 88f 86f
3:50pm 1.3ft 5s 4s 7
mph
1015.4mb 88f 86f
2:50pm 1.6ft 6s 4s 7 9 mph 1015.9mb 87f 85f
1:50pm 1.6ft 6s 4s 7 11 mph 1016.1mb 87f 85f
12:50pm 1.6ft 5s 4s 9 11 mph 1016.1mb 87f 85f
11:50am 1.6ft 6s 4s 9 11 mph 1016.6mb 86f 85f
10:50am 1.6ft 6s 4s 11
mph
1016.9mb 86f 85f
9:50am 1.6ft 6s 4s 7 9 mph 1016.7mb 86f 85f
8:50am 2ft 6s 4s 9 11 mph 1016.7mb 86f 85f
7:50am 2ft 6s 4s 11 16 mph 1016.1mb 86f 85f
6:50am 2.5ft 7s 4s 13 16 mph 1015.8mb 86f 85f
5:50am 2.5ft 6s 4s 13 16 mph 1015.4mb 86f 85f
4:50am 2.5ft 7s 4s 13 16 mph 1015.1mb 86f 85f
3:50am 2.5ft 6s 4s 16
mph
1015.2mb 86f 85f
2:50am 2.5ft 6s 4s 16 18 mph 1015.4mb 86f 85f
1:50am 2.5ft 7s 4s 16 18 mph 1015.8mb 86f 85f
12:50am 2.5ft 6s 4s 13 16 mph 1016.2mb 86f 86f
Fri 07/24 11:50pm 2.5ft 7s 5s 13 18 mph 1016.2mb 86f 86f
10:50pm 2.5ft 6s 5s 11
mph
1016.3mb 86f 86f
9:50pm 2.5ft 6s 4s 11 13 mph 1016mb 86f 86f
8:50pm 2ft 6s 4s 11 13 mph 1015.5mb 86f 86f
7:50pm 2ft 6s 4s 9 11 mph 1015.3mb 86f 86f
6:50pm 2ft 6s 4s 11 13 mph 1015.4mb 87f 87f
5:50pm 2ft 6s 4s 9 11 mph 1015.7mb 87f 86f
4:50pm 2ft 6s 4s 7 9 mph 1016.5mb 87f 86f
3:50pm 2ft 5s 4s 9 11 mph 1016.8mb 87f 86f
2:50pm 2ft 5s 4s 11 13 mph 1017.4mb 87f 86f
1:50pm 2ft 6s 4s 9 13 mph 1017.9mb 86f 86f
12:50pm 2ft 6s 4s 11 13 mph 1018.5mb 86f 86f
11:50am 2ft 5s 4s 11
mph
1018.8mb 86f 86f
10:50am 2ft 6s 4s 11 16 mph 1018.7mb 85f 86f
9:50am 2ft 6s 4s 13 16 mph 1018.5mb 85f 85f
8:50am 2.5ft 7s 4s 13 16 mph 1018.2mb 85f 85f
7:50am 2.5ft 7s 4s 11 13 mph 1017.6mb 85f 85f
6:50am 2.5ft 7s 4s 11 13 mph 1016.8mb 85f 84f
5:50am 2.5ft 6s 4s 13
mph
1016.2mb 85f 84f
4:50am 2.5ft 7s 4s 11 13 mph 1016.2mb 85f 85f